• Join FlightAware (Why Join?)
  • Login
  • US Flag 
05:38PM EDT


 

Airport Tracker/Info


-or-


 

Live Flight TrackerFlight Track Log ✈ UAL3776 ✈ 24-Apr-2013 ✈ KMIA - KIAD

Flight Track Log - Related Links

Times and Time Zones

All times are in EDT time to prevent confusion due to time zone crossing. See the UAL3776 flight status page for this flight to view local times or setup timezone preferences in your user account.

Time Position Orientation Groundspeed Altitude Reporting Facility
EDT Latitude Longitude Course Direction KTS MPH feet Rate Location/Type
11:43AM 25.7981 -80.2767 79° East 125 144 900  Level Miami Center
11:44AM 25.8100 -80.2078 79° East 175 201 3,300 1,920 Climbing Miami Center
11:45AM 25.8428 -80.1464 59° Northeast 215 247 5,200 2,400 Climbing Miami Center
11:46AM 25.9092 -80.1714 341° North 215 247 8,100 2,700 Climbing Miami Center
11:47AM 25.9792 -80.2150 331° Northwest 238 274 10,600 2,160 Climbing Miami Center
11:48AM 26.0469 -80.2700 324° Northwest 267 307 12,500 1,740 Climbing Miami Center
11:50AM 26.1964 -80.3969 323° Northwest 330 380 15,900 1,800 Climbing Miami Center
11:51AM 26.2908 -80.4600 329° Northwest 353 406 17,900 1,620 Climbing Miami Center
11:52AM 26.3775 -80.5022 336° Northwest 368 423 19,200 1,560 Climbing Miami Center
11:53AM 26.4847 -80.5519 337° Northwest 381 438 21,100 1,740 Climbing Miami Center
11:54AM 26.5839 -80.5989 337° Northwest 381 438 22,700 1,680 Climbing Miami Center
11:55AM 26.6808 -80.6464 336° Northwest 381 438 24,500 1,380 Climbing Miami Center
11:56AM 26.7797 -80.6936 337° Northwest 381 438 25,500 840 Climbing Miami Center
11:57AM 26.8872 -80.7344 341° North 386 444 26,300 900 Climbing Miami Center
11:58AM 26.9969 -80.7708 344° North 396 456 27,400 1,020 Climbing Miami Center
11:59AM 27.1092 -80.7956 349° North 402 463 28,400 900 Climbing Miami Center
12:00PM 27.2253 -80.8206 349° North 413 475 29,200 900 Climbing Miami Center
12:01PM 27.3394 -80.8408 351° North 418 481 30,300 1,080 Climbing Miami Center
12:02PM 27.4539 -80.8633 350° North 418 481 31,400 1,200 Climbing Miami Center
12:03PM 27.5636 -80.8883 349° North 407 468 32,700 1,260 Climbing Miami Center
12:04PM 27.6694 -80.9131 348° North 400 460 34,000 1,260 Climbing Miami Center
12:05PM 27.7753 -80.9333 350° North 387 445 35,200 900 Climbing Miami Center
12:06PM 27.8769 -80.9581 348° North 381 438 35,900 660 Climbing Miami Center
12:07PM 27.9786 -80.9783 350° North 376 433 36,600 540 Climbing Miami Center
12:08PM 28.0822 -81.0008 349° North 371 427 37,000 180 Climbing Miami Center
12:09PM 28.1861 -81.0236 349° North 371 427 37,000  Level Miami Center
12:11PM 28.4119 -81.0719 349° North 400 460 37,000  Level Miami Center
12:12PM 28.5258 -81.1022 347° North 411 473 37,000  Level Miami Center
12:13PM 28.6378 -81.1256 350° North 411 473 37,000  Level Miami Center
12:14PM 28.7139 -81.1456 347° North 401 461 37,000  Level Jacksonville Center
12:15PM 28.8292 -81.1697 350° North 433 498 37,000  Level Jacksonville Center
12:16PM 28.9422 -81.1961 348° North 426 490 37,000  Level Jacksonville Center
12:17PM 29.0553 -81.2228 348° North 420 483 37,000  Level Jacksonville Center
12:18PM 29.1703 -81.2469 350° North 420 483 37,000  Level Jacksonville Center
12:19PM 29.2856 -81.2711 350° North 415 478 37,000  Level Jacksonville Center
12:20PM 29.3964 -81.2981 348° North 410 472 37,000  Level Jacksonville Center
12:21PM 29.5075 -81.3247 348° North 410 472 37,000  Level Jacksonville Center
12:22PM 29.6225 -81.3492 350° North 410 472 37,000  Level Jacksonville Center
12:23PM 29.7333 -81.3739 349° North 410 472 37,000  Level Jacksonville Center
12:24PM 29.8444 -81.3983 349° North 410 472 37,000  Level Jacksonville Center
12:25PM 29.9553 -81.4231 349° North 410 472 37,000  Level Jacksonville Center
12:26PM 30.0706 -81.4478 349° North 410 472 37,000  Level Jacksonville Center
12:27PM 30.1814 -81.4750 348° North 410 472 37,000  Level Jacksonville Center
12:28PM 30.2944 -81.4997 349° North 410 472 37,000  Level Jacksonville Center
12:29PM 30.4114 -81.5028 359° North 410 472 37,000  Level Jacksonville Center
12:30PM 30.5322 -81.4939 North 415 478 37,000  Level Jacksonville Center
12:31PM 30.6514 -81.4847 North 420 483 37,000  Level Jacksonville Center
12:32PM 30.7722 -81.4758 North 420 483 37,000  Level Jacksonville Center
12:33PM 30.8933 -81.4667 North 426 490 37,000  Level Jacksonville Center
12:34PM 31.0142 -81.4575 North 426 490 37,000  Level Jacksonville Center
12:35PM 31.1353 -81.4483 North 426 490 37,000  Level Jacksonville Center
12:36PM 31.2561 -81.4369 North 426 490 37,000  Level Jacksonville Center
12:37PM 31.3872 -81.4008 13° North 431 496 37,000  Level Jacksonville Center
12:38PM 31.4956 -81.3722 13° North 431 496 37,000  Level Jacksonville Center
12:39PM 31.6286 -81.3358 13° North 431 496 37,000  Level Jacksonville Center
12:40PM 31.7350 -81.3097 12° North 426 490 37,000  Level Jacksonville Center
12:41PM 31.8639 -81.2756 13° North 431 496 37,000  Level Jacksonville Center
12:42PM 31.9889 -81.2442 12° North 444 511 37,000  Level Jacksonville Center
12:43PM 32.1075 -81.2125 13° North 432 497 37,000  Level Jacksonville Center
12:44PM 32.2172 -81.1492 26° Northeast 439 505 37,000  Level Jacksonville Center
12:45PM 32.3267 -81.0683 32° Northeast 458 527 37,000  Level Jacksonville Center
12:46PM 32.4383 -80.9897 31° Northeast 459 528 37,000  Level Jacksonville Center
12:47PM 32.5478 -80.9111 31° Northeast 453 521 37,000  Level Jacksonville Center
12:48PM 32.6569 -80.8322 31° Northeast 454 522 37,000  Level Jacksonville Center
12:49PM 32.7664 -80.7531 31° Northeast 454 522 37,000  Level Jacksonville Center
12:50PM 32.8756 -80.6739 31° Northeast 454 522 37,000 -60 Level Jacksonville Center
12:51PM 32.9725 -80.6047 31° Northeast 454 522 36,900  Descending Jacksonville Center
12:52PM 33.0817 -80.5250 31° Northeast 454 522 37,000  Climbing Jacksonville Center
12:53PM 33.1928 -80.4453 31° Northeast 459 528 37,000  Level Jacksonville Center
12:54PM 33.3019 -80.3628 32° Northeast 465 535 37,000  Level Jacksonville Center
12:55PM 33.4086 -80.2800 33° Northeast 465 535 37,000  Level Jacksonville Center
12:56PM 33.5175 -80.1994 32° Northeast 460 529 37,000  Level Jacksonville Center
12:57PM 33.6286 -80.1164 32° Northeast 460 529 37,000  Level Jacksonville Center
12:58PM 33.7372 -80.0356 32° Northeast 460 529 37,000  Level Jacksonville Center
12:59PM 33.8439 -79.9519 33° Northeast 460 529 37,000  Level Jacksonville Center
01:00PM 33.9544 -79.8681 32° Northeast 460 529 37,000  Level Jacksonville Center
01:01PM 34.0653 -79.7867 31° Northeast 460 529 37,000  Level Jacksonville Center
01:02PM 34.1758 -79.7025 32° Northeast 465 535 37,000  Level Jacksonville Center
01:04PM 34.3850 -79.5781 26° Northeast 471 542 37,000  Level Washington Center
01:05PM 34.5036 -79.5208 22° Northeast 449 517 37,000  Level Washington Center
01:06PM 34.6164 -79.4581 25° Northeast 444 511 37,000  Level Washington Center
01:07PM 34.7331 -79.3956 24° Northeast 444 511 37,000  Level Washington Center
01:08PM 34.8475 -79.3375 23° Northeast 444 511 37,000  Level Washington Center
01:09PM 34.9644 -79.2744 24° Northeast 444 511 37,000  Level Washington Center
01:10PM 35.0789 -79.2136 24° Northeast 444 511 37,000  Level Washington Center
01:11PM 35.1933 -79.1528 23° Northeast 444 511 37,000  Level Washington Center
01:12PM 35.3100 -79.0917 23° Northeast 444 511 37,000  Level Washington Center
01:13PM 35.4244 -79.0306 24° Northeast 444 511 37,000  Level Washington Center
01:14PM 35.5389 -78.9664 25° Northeast 444 511 37,000 -960 Level Washington Center
01:15PM 35.6575 -78.9000 24° Northeast 444 511 35,100 -1,800 Descending Washington Center
01:16PM 35.7869 -78.8286 24° Northeast 449 517 33,400 -1,740 Descending Washington Center
01:17PM 35.9097 -78.7617 24° Northeast 455 524 31,700 -1,740 Descending Washington Center
01:18PM 36.0325 -78.6897 25° Northeast 468 539 30,000 -1,800 Descending Washington Center
01:19PM 36.1553 -78.6197 25° Northeast 468 539 28,200 -1,500 Descending Washington Center
01:20PM 36.2739 -78.5547 24° Northeast 468 539 27,000 -600 Descending Washington Center
01:21PM 36.3903 -78.4897 24° Northeast 461 531 27,000  Level Washington Center
01:22PM 36.4981 -78.4264 25° Northeast 443 510 27,000  Level Washington Center
01:23PM 36.6058 -78.3656 24° Northeast 425 489 27,000 -540 Level Washington Center
01:24PM 36.7117 -78.3019 26° Northeast 419 482 26,000 -1,260 Descending Washington Center
01:25PM 36.8131 -78.2433 25° Northeast 413 475 24,500 -1,500 Descending Washington Center
01:26PM 36.9189 -78.1844 24° Northeast 408 470 23,000 -1,260 Descending Washington Center
01:27PM 37.0203 -78.1256 25° Northeast 402 463 22,000 -1,020 Descending Washington Center
01:28PM 37.1258 -78.0639 25° Northeast 407 468 21,000 -540 Descending Washington Center
01:29PM 37.2314 -78.0047 24° Northeast 407 468 21,000  Level Washington Center
01:30PM 37.3367 -77.9428 25° Northeast 407 468 21,000  Level Washington Center
01:31PM 37.4444 -77.8781 25° Northeast 407 468 21,000 -240 Level Washington Center
01:32PM 37.5519 -77.8158 25° Northeast 407 468 20,600 -1,200 Descending Washington Center
01:33PM 37.6533 -77.7558 25° Northeast 407 468 18,600 -1,920 Descending Washington Center
01:34PM 37.7564 -77.6958 25° Northeast 402 463 16,800 -1,860 Descending Washington Center
01:35PM 37.8575 -77.6381 24° Northeast 402 463 14,900 -1,920 Descending Washington Center
01:36PM 37.9525 -77.5800 26° Northeast 397 457 13,000 -1,860 Descending Washington Center
01:37PM 38.0386 -77.5347 22° Northeast 376 433 11,200 -1,500 Descending Washington Center
01:38PM 38.1272 -77.4817 25° Northeast 363 418 10,000 -600 Descending Washington Center
01:39PM 38.2050 -77.4336 26° Northeast 332 382 10,000 -480 Level Washington Center
01:40PM 38.2850 -77.3878 24° Northeast 315 362 9,100 -1,200 Descending Washington Center
01:41PM 38.3647 -77.3553 18° North 309 356 7,700 -1,500 Descending Washington Center
01:42PM 38.4500 -77.3600 358° North 296 341 6,200 -1,380 Descending Washington Center
01:43PM 38.5333 -77.3647 357° North 291 335 5,000 -600 Descending Washington Center
01:44PM 38.6167 -77.3667 359° North 291 335 5,000 -420 Level Washington Center
01:45PM 38.6961 -77.3633 North 291 335 4,200 -540 Descending Washington Center
01:46PM 38.7833 -77.3500 North 281 323 4,000 -120 Descending Potomac TRACON
01:47PM 38.8667 -77.3500 360° North 282 325 4,000 -480 Level Potomac TRACON
01:48PM 38.9333 -77.3500 360° North 277 319 3,100 -540 Descending Potomac TRACON
01:49PM 39.0167 -77.3500 360° North 245 282 3,000 -540 Descending Potomac TRACON
01:50PM 39.0333 -77.4000 293° West 219 252 2,100 -780 Descending Potomac TRACON
01:51PM 39.0167 -77.4333 237° Southwest 155 178 1,500 -660 Descending Potomac TRACON
01:52PM 38.9833 -77.4333 180° South 126 145 800 -720 Descending Potomac TRACON
01:54PM 38.9474 -77.4599 195° South  Level Estimated
02:01PM 38.9474 -77.4599 195° South  Level Estimated
02:02PM 38.9474 -77.4599 195° South  Level Estimated
02:03PM 38.9474 -77.4599 195° South  Level Estimated